Current Conditions - Area Ports

 

CYWH - Victoria Harbour, British Columbia, Canada
Distance from station: WSW 10km
Updated: 04/21/2018 4:00pm
Mostly cloudy
Mostly cloudy
 Wind from WSW
Wind: WSW 31 km/h, Gust: 41 km/h
Temperature: 11°C
Dew Point: 2°C
Humidity: 54%
Barometer: 1029.5 hPa
Clouds: Mostly cloudy
Visibility: 24 km
Cloud details: Partly cloudy 1067 m
Mostly cloudy 6706 m
2018/04/21 23:00 CYWH 212300Z 25017G22KT 15SM SCT035 BKN220 11/02 A3040 RMK CU3CS4 SLP295
KFHR - Friday Harbor, Washington, USA
Distance from station: ENE 19km
Updated: 04/21/2018 3:53pm
Few Clouds
Few Clouds
 Wind from SW
Wind: SW 20 km/h, Gust: 31 km/h
Temperature: 12°C
Dew Point: 3°C
Humidity: 54%
Barometer: 1029.8 hPa
Clouds: Few Clouds
Visibility: 16 km
Cloud details: Few Clouds 2134 m
2018/04/21 22:53 KFHR 212253Z AUTO 22011G17KT 10SM FEW070 12/03 A3041 RMK AO2 SLP297 T01220028 TSNO
 
KORS - Eastsound/Orcas, Washington, USA
Distance from station: NE 38km
Updated: 04/21/2018 3:55pm
Mostly cloudy
Mostly cloudy
 Wind from varies
Wind: varies 9 km/h
Temperature: 11°C
Dew Point: 2°C
Humidity: 54%
Barometer: 1029.1 hPa
Clouds: Mostly cloudy
Visibility: 16 km
Cloud details: Few Clouds 1402 m
Few Clouds 1829 m
Mostly cloudy 2438 m
2018/04/21 22:55 KORS 212255Z AUTO VRB05KT 10SM FEW046 FEW060 BKN080 11/02 A3039 RMK AO2
KNUW - Whidbey Is. Nas, Washington, USA
Distance from station: ESE 47km
Updated: 04/21/2018 3:56pm
Mostly cloudy
Mostly cloudy
 Wind from WSW
Wind: WSW 17 km/h
Temperature: 12°C
Dew Point: 4°C
Humidity: 58%
Barometer: 1031.5 hPa
Clouds: Mostly cloudy
Visibility: 16 km
Cloud details: Partly cloudy 1067 m
Partly cloudy 2438 m
Mostly cloudy 3658 m
Mostly cloudy 7620 m
2018/04/21 22:56 KNUW 212256Z 24009KT 10SM SCT035 SCT080 BKN120 BKN250 12/04 A3046 RMK AO2 SLP313 T01220044 $
 
CWEZ - Saturna Isl (map, British Columbia, Canada
Distance from station: NNE 40km
Updated: 04/21/2018 4:00pm

 Wind from W
Wind: W 4 km/h
Temperature: 12°C
Dew Point: 4°C
Humidity: 58%
2018/04/21 23:00 CWEZ 212300Z AUTO 27002KT 12/04 RMK AO1 1010 SLP288 T01150037 50002
CYCD - Nanaimo Airport, British Columbia, Canada
Distance from station: NW 80km
Updated: 04/21/2018 4:00pm
Light rain, Showers, Mostly cloudy
Light rain, Showers, Mostly cloudy
 Wind from S
Wind: S 7 km/h
Temperature: 11°C
Dew Point: 4°C
Humidity: 62%
Barometer: 1029.1 hPa
Summary: Light rain, Showers
Clouds: Mostly cloudy
Visibility: 40 km
Cloud details: Mostly cloudy 1676 m
Mostly cloudy 2286 m
Mostly cloudy 6706 m
2018/04/21 23:00 CYCD 212300Z 17004KT 110V190 25SM -SHRA BKN055TCU BKN075 BKN220 11/04 A3039 RMK TCU5AC1CI1 SLP294
 
CWVF - Sand Heads (ls), British Columbia, Canada
Distance from station: N 72km
Updated: 04/21/2018 4:00pm

 Wind from WSW
Wind: WSW 17 km/h
Temperature: 10°C
Wind Chill: 8°C
Dew Point: 2°C
Humidity: 58%
2018/04/21 23:00 CWVF 212300Z AUTO 25009KT 10/02 RMK AO1 T01020020
CWQK - Race Rocks Autob, British Columbia, Canada
Distance from station: SW 26km
Updated: 04/21/2018 4:00pm

 Wind from W
Wind: W 41 km/h
Temperature: 9°C
Wind Chill: 4°C
Dew Point: 3°C
Humidity: 66%
2018/04/21 23:00 CWQK 212300Z AUTO 28022KT 09/03 RMK AO1 PK WND 28025/2251 SLP300 T00940027 50000
 
CWSP - Sheringham Autob, British Columbia, Canada
Distance from station: W 49km
Updated: 03/25/2018 5:00pm
NOT Current

 Wind from WNW
Wind: WNW 17 km/h
Temperature: 11°C
Dew Point: 5°C
Humidity: 67%
2018/03/26 00:00 CWSP 260000Z AUTO 29009KT 11/05 RMK AO1 0001 PK WND 28017/2325 SLP197 T01080049 50002